Time;durP1;ratioP1;P1;durP2;ratioP2;P2;SDS_P1;SDS_P2;PMS_P1;PMS_P2;Temp;Humidity;BMP_temperature;BMP_pressure;BME280_temperature;BME280_humidity;BME280_pressure;Samples;Min_cycle;Max_cycle;Signal;HPM_P1;HPM_P2
2023/07/28 00:02:07;;;;;;;61.35;26.52;;;17.10;99.90;;;;;;5051915;28;20055;-64
2023/07/28 00:04:35;;;;;;;99.65;29.88;;;18.40;99.90;;;;;;5054701;28;20052;-65
2023/07/28 00:07:01;;;;;;;54.90;25.17;;;17.10;99.90;;;;;;5052507;28;20037;-67
2023/07/28 00:09:26;;;;;;;61.05;25.50;;;18.40;99.90;;;;;;5052839;28;20533;-63
2023/07/28 00:11:52;;;;;;;80.95;29.33;;;17.40;99.90;;;;;;5050550;28;20149;-64
2023/07/28 00:14:18;;;;;;;68.35;28.15;;;18.50;99.90;;;;;;5052337;28;20360;-66
2023/07/28 00:16:44;;;;;;;60.17;26.17;;;17.10;99.90;;;;;;5053445;28;20304;-66
2023/07/28 00:19:09;;;;;;;58.35;26.58;;;17.60;99.90;;;;;;5036149;28;20058;-64
2023/07/28 00:21:35;;;;;;;57.50;27.40;;;17.10;99.90;;;;;;5041683;28;20068;-64
2023/07/28 00:24:01;;;;;;;71.05;29.88;;;18.40;99.90;;;;;;5051622;28;20209;-63
2023/07/28 00:26:26;;;;;;;54.42;27.63;;;18.30;99.90;;;;;;5035943;28;20040;-64
2023/07/28 00:28:52;;;;;;;59.42;29.50;;;18.40;99.90;;;;;;5069924;28;20074;-64
2023/07/28 00:31:18;;;;;;;57.00;27.95;;;18.50;99.90;;;;;;5052181;28;20383;-65
2023/07/28 00:33:43;;;;;;;56.85;28.45;;;17.30;99.90;;;;;;5039953;28;20086;-64
2023/07/28 00:36:09;;;;;;;59.35;28.67;;;17.20;99.90;;;;;;5050517;28;20071;-64
2023/07/28 00:38:35;;;;;;;53.63;27.05;;;17.30;99.90;;;;;;5041881;28;20032;-64
2023/07/28 00:41:00;;;;;;;67.60;29.25;;;18.50;99.90;;;;;;5069550;28;20319;-65
2023/07/28 00:43:26;;;;;;;59.50;29.50;;;17.20;99.90;;;;;;5051378;28;20032;-64
2023/07/28 00:45:52;;;;;;;55.38;28.40;;;18.00;99.90;;;;;;5073813;28;20048;-63
2023/07/28 00:48:20;;;;;;;64.63;28.98;;;17.50;99.90;;;;;;5043459;28;20043;-63
2023/07/28 00:50:47;;;;;;;69.93;31.70;;;17.30;99.90;;;;;;5053643;28;20053;-64
2023/07/28 00:53:14;;;;;;;69.75;30.25;;;18.50;99.90;;;;;;5051394;28;20048;-63
2023/07/28 00:55:40;;;;;;;65.68;30.20;;;17.30;99.90;;;;;;5053970;28;20136;-64
2023/07/28 00:58:06;;;;;;;66.22;29.63;;;18.30;99.90;;;;;;5059260;28;20055;-64
2023/07/28 01:00:32;;;;;;;62.28;28.75;;;17.60;99.90;;;;;;5054111;28;20327;-63
2023/07/28 01:02:57;;;;;;;58.00;27.80;;;17.20;99.90;;;;;;5075003;28;20090;-64
2023/07/28 01:05:51;;;;;;;61.20;26.25;;;18.60;99.90;;;;;;5054527;28;20064;-65
2023/07/28 01:08:43;;;;;;;62.53;27.10;;;17.30;99.90;;;;;;5053128;28;20048;-64
2023/07/28 01:11:09;;;;;;;60.38;26.88;;;17.50;99.90;;;;;;5055562;28;20059;-65
2023/07/28 01:13:34;;;;;;;53.53;27.23;;;18.10;99.90;;;;;;5054669;28;20040;-63
2023/07/28 01:16:00;;;;;;;61.10;27.60;;;18.30;99.90;;;;;;5054590;28;20032;-63
2023/07/28 01:18:27;;;;;;;62.53;26.75;;;18.00;99.90;;;;;;5042451;28;20290;-64
2023/07/28 01:20:56;;;;;;;75.43;28.02;;;17.90;99.90;;;;;;5054784;28;20048;-64
2023/07/28 01:23:37;;;;;;;74.00;29.30;;;17.50;99.90;;;;;;5056512;28;20398;-64
2023/07/28 01:26:09;;;;;;;79.03;31.98;;;18.40;99.90;;;;;;5055043;28;20101;-63
2023/07/28 01:28:36;;;;;;;86.03;31.30;;;18.20;99.90;;;;;;5055369;28;20561;-63
2023/07/28 01:31:06;;;;;;;74.22;29.05;;;17.40;99.90;;;;;;5056221;28;20333;-64
2023/07/28 01:33:33;;;;;;;89.72;31.10;;;18.40;99.90;;;;;;5077445;28;20047;-63
2023/07/28 01:36:00;;;;;;;84.18;30.90;;;17.30;99.90;;;;;;5056026;28;20036;-62
2023/07/28 01:38:27;;;;;;;77.82;30.65;;;18.20;99.90;;;;;;5055939;28;20430;-63
2023/07/28 01:40:52;;;;;;;74.20;29.83;;;17.80;99.90;;;;;;5039626;28;20327;-65
2023/07/28 01:43:19;;;;;;;70.57;28.42;;;18.40;99.90;;;;;;5053993;28;20063;-63
2023/07/28 01:45:44;;;;;;;58.90;27.08;;;18.50;99.90;;;;;;5053495;28;20106;-64
2023/07/28 01:48:10;;;;;;;58.30;27.40;;;18.50;99.90;;;;;;5052695;28;20444;-63
2023/07/28 01:50:36;;;;;;;65.63;27.48;;;17.60;99.90;;;;;;5074762;28;20094;-63
2023/07/28 01:53:03;;;;;;;62.88;27.15;;;17.30;99.90;;;;;;5058947;28;20034;-63
2023/07/28 01:55:29;;;;;;;66.18;27.92;;;17.40;99.90;;;;;;5038936;28;20119;-63
2023/07/28 01:58:00;;;;;;;57.70;27.58;;;17.40;99.90;;;;;;5053795;28;20101;-63
2023/07/28 02:00:26;;;;;;;59.83;26.83;;;18.40;99.90;;;;;;5053764;28;20098;-63
2023/07/28 02:02:53;;;;;;;64.68;28.60;;;18.20;99.90;;;;;;5055933;28;20068;-63
2023/07/28 02:05:19;;;;;;;81.40;29.85;;;18.20;99.90;;;;;;5053184;28;20561;-62
2023/07/28 02:07:45;;;;;;;64.93;28.08;;;18.70;99.90;;;;;;5054024;28;20510;-63
2023/07/28 02:10:10;;;;;;;75.03;30.00;;;17.30;99.90;;;;;;5076600;28;20289;-63
2023/07/28 02:12:37;;;;;;;75.80;30.08;;;18.70;99.90;;;;;;5054365;28;20040;-64
2023/07/28 02:15:03;;;;;;;59.60;27.65;;;17.90;99.90;;;;;;5036286;28;20086;-63
2023/07/28 02:17:29;;;;;;;80.95;31.92;;;18.50;99.90;;;;;;5057311;28;20091;-63
2023/07/28 02:19:55;;;;;;;72.80;27.75;;;17.40;99.90;;;;;;5073714;28;20316;-63
2023/07/28 02:22:20;;;;;;;61.92;26.60;;;17.80;99.90;;;;;;5036590;28;20058;-63
2023/07/28 02:24:46;;;;;;;69.35;27.85;;;18.40;99.90;;;;;;5053606;28;20146;-64
2023/07/28 02:27:12;;;;;;;90.03;31.77;;;18.40;99.90;;;;;;5053604;28;20127;-63
2023/07/28 02:29:37;;;;;;;78.68;30.33;;;17.90;99.90;;;;;;5053889;28;20085;-64
2023/07/28 02:32:03;;;;;;;73.07;28.42;;;18.60;99.90;;;;;;5037147;28;20072;-63
2023/07/28 02:34:30;;;;;;;81.25;31.02;;;18.50;99.90;;;;;;5054260;28;20054;-63
2023/07/28 02:36:56;;;;;;;62.35;27.52;;;17.30;99.90;;;;;;5075038;28;20093;-63
2023/07/28 02:39:21;;;;;;;64.03;27.27;;;18.40;99.90;;;;;;5052619;28;20044;-65
2023/07/28 02:41:47;;;;;;;69.13;27.70;;;17.90;99.90;;;;;;5041745;28;20591;-64
2023/07/28 02:44:13;;;;;;;66.18;27.35;;;17.40;99.90;;;;;;5049821;28;20117;-62
2023/07/28 02:46:38;;;;;;;72.88;30.00;;;17.80;99.90;;;;;;5052132;28;20090;-63
2023/07/28 02:49:04;;;;;;;70.80;27.95;;;17.90;99.90;;;;;;5041543;28;20044;-63
2023/07/28 02:51:30;;;;;;;75.53;30.13;;;17.30;99.90;;;;;;5032385;28;20036;-63
2023/07/28 02:53:56;;;;;;;74.20;28.15;;;17.40;99.90;;;;;;5052118;28;20362;-63
2023/07/28 02:56:22;;;;;;;76.90;28.35;;;17.80;99.90;;;;;;5053525;28;20056;-64
2023/07/28 02:58:48;;;;;;;77.88;29.15;;;18.60;99.90;;;;;;5042589;28;20048;-63
2023/07/28 03:01:14;;;;;;;71.70;29.05;;;17.30;99.90;;;;;;5052299;28;20053;-65
2023/07/28 03:03:40;;;;;;;69.10;27.83;;;17.40;99.90;;;;;;5035386;28;20047;-63
2023/07/28 03:06:06;;;;;;;78.78;28.38;;;17.50;99.90;;;;;;5056327;28;20113;-64
2023/07/28 03:08:31;;;;;;;75.18;28.98;;;17.50;99.90;;;;;;5052338;28;20423;-63
2023/07/28 03:10:58;;;;;;;68.72;27.77;;;18.00;99.90;;;;;;5035520;28;20071;-63
2023/07/28 03:13:23;;;;;;;73.05;27.52;;;17.70;99.90;;;;;;5072522;28;20075;-63
2023/07/28 03:15:49;;;;;;;85.07;28.10;;;17.30;99.90;;;;;;5051504;28;20571;-63
2023/07/28 03:18:16;;;;;;;77.65;28.52;;;17.40;99.90;;;;;;5051505;28;20303;-63
2023/07/28 03:20:41;;;;;;;71.65;28.15;;;17.60;99.90;;;;;;5052833;28;20515;-63
2023/07/28 03:23:07;;;;;;;74.57;27.65;;;18.40;99.90;;;;;;5052420;28;20093;-64
2023/07/28 03:25:33;;;;;;;68.07;27.00;;;17.60;99.90;;;;;;5040335;28;20078;-62
2023/07/28 03:27:58;;;;;;;69.88;27.45;;;17.40;99.90;;;;;;5074099;28;20040;-64
2023/07/28 03:30:24;;;;;;;61.83;26.92;;;18.50;99.90;;;;;;5032042;28;20289;-64
2023/07/28 03:32:50;;;;;;;73.85;29.27;;;17.70;99.90;;;;;;5051453;28;20051;-63
2023/07/28 03:35:15;;;;;;;67.90;28.05;;;18.60;99.90;;;;;;5053861;28;20040;-62
2023/07/28 03:37:41;;;;;;;70.50;29.23;;;18.20;99.90;;;;;;5054241;28;20083;-63
2023/07/28 03:40:07;;;;;;;61.05;26.70;;;17.70;99.90;;;;;;5020134;28;20039;-64
2023/07/28 03:42:33;;;;;;;64.28;26.73;;;18.70;99.90;;;;;;5051821;28;20339;-64
2023/07/28 03:44:59;;;;;;;55.67;25.92;;;17.60;99.90;;;;;;5052167;28;20749;-63
2023/07/28 03:47:25;;;;;;;60.00;25.70;;;18.60;99.90;;;;;;5074085;28;20024;-63
2023/07/28 03:49:50;;;;;;;65.78;28.05;;;18.60;99.90;;;;;;5035361;28;20094;-63
2023/07/28 03:52:17;;;;;;;69.28;26.75;;;18.60;99.90;;;;;;5052030;28;20064;-64
2023/07/28 03:54:42;;;;;;;65.22;26.33;;;18.30;99.90;;;;;;5053467;28;20158;-63
2023/07/28 03:57:09;;;;;;;81.78;29.77;;;18.10;99.90;;;;;;5039231;28;20458;-63
2023/07/28 03:59:35;;;;;;;64.40;28.85;;;18.50;99.90;;;;;;5052040;28;20286;-62
2023/07/28 04:02:01;;;;;;;81.05;30.67;;;17.60;99.90;;;;;;5042436;28;20253;-63
2023/07/28 04:04:26;;;;;;;84.72;30.23;;;17.30;99.90;;;;;;5042011;28;20040;-63
2023/07/28 04:06:55;;;;;;;68.43;29.17;;;17.40;99.90;;;;;;5072574;28;20155;-64
2023/07/28 04:09:21;;;;;;;69.78;28.85;;;18.50;99.90;;;;;;5051745;28;20067;-62
2023/07/28 04:11:47;;;;;;;65.35;27.63;;;17.50;99.90;;;;;;5072245;28;20268;-63
2023/07/28 04:14:14;;;;;;;71.32;28.63;;;17.70;99.90;;;;;;5052058;28;20040;-63
2023/07/28 04:16:39;;;;;;;60.85;27.75;;;17.50;99.90;;;;;;5036386;28;20036;-62
2023/07/28 04:19:05;;;;;;;60.50;27.75;;;17.40;99.90;;;;;;5039693;28;20106;-63
2023/07/28 04:21:31;;;;;;;70.40;29.13;;;18.80;99.90;;;;;;5055823;28;20044;-63
2023/07/28 04:23:57;;;;;;;63.65;26.75;;;18.40;99.90;;;;;;5055966;28;20044;-63
2023/07/28 04:26:24;;;;;;;64.97;28.52;;;18.50;99.90;;;;;;5054786;28;20041;-64
2023/07/28 04:28:49;;;;;;;67.90;29.00;;;17.90;99.90;;;;;;5056642;28;20465;-64
2023/07/28 04:31:15;;;;;;;63.00;27.55;;;18.40;99.90;;;;;;5055278;28;20045;-65
2023/07/28 04:33:41;;;;;;;54.08;25.52;;;18.50;99.90;;;;;;5053980;28;20040;-63
2023/07/28 04:36:07;;;;;;;57.78;26.73;;;17.80;99.90;;;;;;5038143;28;20051;-64
2023/07/28 04:38:33;;;;;;;49.28;25.83;;;18.80;99.90;;;;;;5040011;28;20276;-63
2023/07/28 04:40:59;;;;;;;59.83;26.52;;;17.40;99.90;;;;;;5078745;28;20470;-63
2023/07/28 04:43:24;;;;;;;61.63;27.48;;;17.60;99.90;;;;;;5042338;28;20129;-64
2023/07/28 04:45:50;;;;;;;53.00;27.00;;;17.90;99.90;;;;;;5055536;28;20045;-62
2023/07/28 04:48:16;;;;;;;61.97;27.60;;;17.90;99.90;;;;;;5054427;28;20174;-63
2023/07/28 04:50:41;;;;;;;61.17;27.80;;;18.40;99.90;;;;;;5073978;28;20607;-63
2023/07/28 04:53:07;;;;;;;55.08;27.35;;;18.70;99.90;;;;;;5040182;28;20036;-64
2023/07/28 04:55:33;;;;;;;58.65;27.50;;;18.70;99.90;;;;;;5054141;28;20036;-64
2023/07/28 04:57:58;;;;;;;63.67;27.40;;;17.70;99.90;;;;;;5054988;28;20041;-62
2023/07/28 05:00:24;;;;;;;51.92;26.10;;;18.40;99.90;;;;;;5056103;28;20072;-64
2023/07/28 05:02:50;;;;;;;45.72;24.42;;;17.80;99.90;;;;;;5038328;28;20102;-63
2023/07/28 05:05:15;;;;;;;52.17;25.40;;;18.80;99.90;;;;;;5051713;28;20044;-63
2023/07/28 05:07:41;;;;;;;68.18;26.27;;;17.50;99.90;;;;;;5054097;28;20071;-64
2023/07/28 05:10:07;;;;;;;50.15;24.55;;;17.60;99.90;;;;;;5055091;28;20237;-64
2023/07/28 05:12:33;;;;;;;48.42;24.63;;;17.50;99.90;;;;;;5043291;28;20163;-64
2023/07/28 05:14:59;;;;;;;46.10;24.05;;;18.50;99.90;;;;;;5054671;28;20299;-64
2023/07/28 05:17:25;;;;;;;48.85;23.85;;;17.70;99.90;;;;;;5074908;28;20119;-64
2023/07/28 05:19:51;;;;;;;50.45;23.20;;;18.90;99.90;;;;;;5037460;28;20050;-63
2023/07/28 05:22:16;;;;;;;50.28;23.83;;;18.70;99.90;;;;;;5054347;28;20410;-63
2023/07/28 05:24:44;;;;;;;45.45;21.63;;;18.70;99.90;;;;;;5058612;28;20062;-64
2023/07/28 05:27:10;;;;;;;48.75;22.08;;;17.80;99.90;;;;;;5037695;28;20083;-64
2023/07/28 05:29:35;;;;;;;38.80;20.80;;;18.50;99.90;;;;;;5042464;28;20059;-63
2023/07/28 05:32:01;;;;;;;39.60;20.98;;;18.90;99.90;;;;;;5036760;28;20036;-63
2023/07/28 05:34:27;;;;;;;40.58;20.35;;;17.70;99.90;;;;;;5043233;28;20047;-63
2023/07/28 05:36:53;;;;;;;42.90;20.23;;;18.70;99.90;;;;;;5054700;28;20769;-62
2023/07/28 05:39:18;;;;;;;48.97;21.45;;;19.10;99.90;;;;;;5055657;28;20347;-63
2023/07/28 05:41:44;;;;;;;40.83;19.95;;;18.60;99.90;;;;;;5053551;28;20868;-64
2023/07/28 05:44:10;;;;;;;38.08;19.63;;;18.30;99.90;;;;;;5056847;28;20052;-64
2023/07/28 05:46:35;;;;;;;36.47;20.65;;;19.10;99.90;;;;;;5055687;28;20119;-64
2023/07/28 05:49:01;;;;;;;38.97;20.77;;;19.10;99.90;;;;;;5056991;28;20368;-64
2023/07/28 05:51:27;;;;;;;43.35;20.38;;;19.10;99.90;;;;;;5053578;28;20044;-64
2023/07/28 05:53:53;;;;;;;32.92;19.80;;;18.10;99.90;;;;;;5073159;28;20530;-63
2023/07/28 05:56:18;;;;;;;33.38;18.55;;;18.90;99.90;;;;;;5049805;28;20055;-64
2023/07/28 05:58:45;;;;;;;32.38;18.42;;;18.80;99.90;;;;;;5056479;28;20465;-64
2023/07/28 06:01:11;;;;;;;34.58;19.70;;;18.30;99.90;;;;;;5069817;28;20094;-64
2023/07/28 06:03:38;;;;;;;26.95;18.25;;;19.00;99.90;;;;;;5052810;28;20269;-64
2023/07/28 06:06:04;;;;;;;28.33;17.98;;;18.10;99.90;;;;;;5052611;28;20066;-63
2023/07/28 06:08:29;;;;;;;24.17;17.10;;;18.30;99.90;;;;;;5053403;28;20592;-63
2023/07/28 06:10:55;;;;;;;28.13;18.17;;;18.50;99.90;;;;;;5055139;28;20067;-63
2023/07/28 06:13:21;;;;;;;22.38;17.05;;;19.10;99.90;;;;;;5052739;28;20109;-63
2023/07/28 06:15:47;;;;;;;21.17;15.85;;;19.10;99.90;;;;;;5055390;28;20542;-63
2023/07/28 06:18:13;;;;;;;19.75;14.63;;;18.60;99.90;;;;;;5046031;28;20041;-63
2023/07/28 06:20:42;;;;;;;21.58;13.90;;;19.00;99.90;;;;;;5053769;28;20036;-63
2023/07/28 06:23:08;;;;;;;19.42;14.70;;;18.30;99.90;;;;;;5036832;28;20625;-64
2023/07/28 06:25:34;;;;;;;19.13;13.90;;;18.80;99.90;;;;;;5056633;28;20128;-65
2023/07/28 06:28:00;;;;;;;18.48;12.93;;;18.60;99.90;;;;;;5071950;28;20224;-63
2023/07/28 06:30:26;;;;;;;17.98;12.10;;;18.80;99.90;;;;;;5039246;28;20568;-64
2023/07/28 06:32:51;;;;;;;17.92;13.60;;;18.30;99.90;;;;;;5053202;28;20044;-64
2023/07/28 06:35:17;;;;;;;14.73;12.68;;;19.00;99.90;;;;;;5057785;28;20040;-64
2023/07/28 06:37:43;;;;;;;14.30;12.05;;;19.20;99.90;;;;;;5054542;28;20044;-64
2023/07/28 06:40:09;;;;;;;16.80;12.77;;;18.60;99.90;;;;;;5053594;28;20045;-64
2023/07/28 06:42:36;;;;;;;13.90;12.15;;;18.70;99.90;;;;;;5051521;28;20312;-64
2023/07/28 06:45:03;;;;;;;17.63;12.60;;;18.70;99.90;;;;;;5038888;28;20044;-63
2023/07/28 06:47:29;;;;;;;17.38;12.80;;;19.40;99.90;;;;;;5068554;28;20119;-63
2023/07/28 06:49:54;;;;;;;14.38;12.43;;;19.10;99.90;;;;;;5053726;28;20150;-63
2023/07/28 06:52:20;;;;;;;14.35;11.73;;;18.60;99.90;;;;;;5086936;28;20040;-63
2023/07/28 06:54:47;;;;;;;17.35;13.48;;;19.30;99.90;;;;;;5076851;27;20067;-64
2023/07/28 06:57:14;;;;;;;16.02;13.02;;;18.50;99.90;;;;;;5053172;28;20170;-63
2023/07/28 06:59:39;;;;;;;18.50;13.93;;;19.40;99.90;;;;;;5070256;28;20044;-63
2023/07/28 07:02:06;;;;;;;15.60;13.68;;;19.20;99.90;;;;;;5070143;28;20070;-65
2023/07/28 07:04:31;;;;;;;16.35;14.35;;;19.20;99.90;;;;;;5049433;28;20520;-63
2023/07/28 07:06:57;;;;;;;20.23;15.25;;;18.50;99.90;;;;;;5036018;28;20085;-63
2023/07/28 07:09:24;;;;;;;21.10;14.68;;;18.40;99.90;;;;;;5055264;28;20244;-64
2023/07/28 07:11:50;;;;;;;17.08;14.43;;;19.20;99.90;;;;;;5036051;28;20498;-64
2023/07/28 07:14:16;;;;;;;18.88;15.95;;;19.30;99.90;;;;;;5053524;28;20036;-63
2023/07/28 07:16:42;;;;;;;15.50;13.90;;;18.60;99.90;;;;;;5073519;28;20040;-63
2023/07/28 07:19:11;;;;;;;15.20;13.60;;;19.50;99.90;;;;;;5072108;28;20382;-62
2023/07/28 07:21:36;;;;;;;15.77;14.18;;;18.70;99.90;;;;;;5072289;28;20040;-62
2023/07/28 07:24:03;;;;;;;16.42;14.73;;;19.70;99.90;;;;;;5051929;28;20071;-62
2023/07/28 07:26:31;;;;;;;15.27;13.70;;;19.10;99.90;;;;;;5068199;28;20068;-62
2023/07/28 07:28:57;;;;;;;14.68;13.23;;;19.60;99.90;;;;;;5050891;28;20112;-62
2023/07/28 07:31:23;;;;;;;13.70;12.40;;;19.20;99.90;;;;;;5049744;28;20059;-63
2023/07/28 07:33:49;;;;;;;14.05;12.65;;;19.90;99.90;;;;;;5052026;28;20043;-63
2023/07/28 07:36:15;;;;;;;12.63;11.43;;;19.70;99.90;;;;;;5045446;28;20051;-63
2023/07/28 07:38:41;;;;;;;14.07;10.52;;;19.70;99.90;;;;;;5053896;28;20664;-64
2023/07/28 07:41:08;;;;;;;10.85;9.85;;;19.90;99.90;;;;;;5072162;28;20268;-63
2023/07/28 07:43:34;;;;;;;9.80;8.90;;;19.80;99.90;;;;;;5054997;28;20083;-64
2023/07/28 07:46:00;;;;;;;10.05;9.05;;;20.10;99.90;;;;;;5054283;28;20156;-63
2023/07/28 07:48:26;;;;;;;9.20;8.40;;;19.90;99.90;;;;;;5047380;28;20073;-63
2023/07/28 07:50:51;;;;;;;9.07;8.27;;;19.90;99.90;;;;;;5047199;28;20037;-64
2023/07/28 07:53:17;;;;;;;10.82;8.50;;;20.20;99.90;;;;;;5034663;28;20040;-64
2023/07/28 07:55:43;;;;;;;9.30;8.38;;;20.00;99.90;;;;;;5037491;28;20177;-63
2023/07/28 07:58:09;;;;;;;9.30;8.32;;;19.80;99.90;;;;;;5061552;28;20506;-63
2023/07/28 08:00:38;;;;;;;9.55;8.57;;;19.80;99.90;;;;;;5057330;28;20419;-63
2023/07/28 08:03:04;;;;;;;8.57;7.78;;;19.80;99.90;;;;;;5071835;28;20442;-63
2023/07/28 08:05:31;;;;;;;9.68;8.65;;;19.60;99.90;;;;;;5058621;28;20106;-63
2023/07/28 08:07:57;;;;;;;7.55;6.85;;;20.00;99.90;;;;;;5059023;28;20387;-63
2023/07/28 08:10:22;;;;;;;7.40;6.63;;;20.00;99.90;;;;;;5045736;28;20406;-64
2023/07/28 08:12:49;;;;;;;7.25;6.55;;;19.90;99.90;;;;;;5060660;28;20051;-63
2023/07/28 08:15:15;;;;;;;6.20;5.60;;;19.90;99.90;;;;;;5060374;28;20443;-63
2023/07/28 08:17:40;;;;;;;5.88;5.25;;;20.00;99.90;;;;;;5058194;28;20171;-63
2023/07/28 08:20:09;;;;;;;5.25;4.50;;;20.00;99.90;;;;;;5048163;28;20143;-63
2023/07/28 08:22:35;;;;;;;5.32;4.82;;;20.10;99.90;;;;;;5059789;28;20520;-63
2023/07/28 08:25:02;;;;;;;5.30;4.80;;;20.20;99.90;;;;;;5046983;28;20146;-64
2023/07/28 08:27:27;;;;;;;6.28;4.80;;;20.00;99.90;;;;;;5059773;28;20059;-63
2023/07/28 08:29:53;;;;;;;7.25;5.93;;;20.20;99.90;;;;;;5058442;28;20252;-63
2023/07/28 08:32:19;;;;;;;8.38;5.93;;;20.30;99.90;;;;;;5046488;28;20048;-64
2023/07/28 08:34:44;;;;;;;6.50;5.90;;;20.50;99.90;;;;;;5042500;28;20692;-63
2023/07/28 08:37:11;;;;;;;7.80;5.50;;;20.50;99.90;;;;;;5058628;28;20406;-63
2023/07/28 08:39:36;;;;;;;5.45;4.70;;;20.40;99.90;;;;;;5044032;28;20035;-64
2023/07/28 08:42:03;;;;;;;5.15;4.38;;;20.60;99.90;;;;;;5059377;28;20290;-64
2023/07/28 08:44:33;;;;;;;5.55;5.03;;;20.60;99.90;;;;;;5042070;28;20234;-64
2023/07/28 08:47:06;;;;;;;5.90;5.40;;;20.60;99.90;;;;;;5057643;28;20814;-63
2023/07/28 08:49:35;;;;;;;5.63;5.03;;;20.70;99.90;;;;;;5070064;28;20048;-63
2023/07/28 08:52:01;;;;;;;5.95;3.90;;;20.70;99.90;;;;;;5059845;28;20500;-64
2023/07/28 08:54:27;;;;;;;3.97;3.20;;;20.80;99.90;;;;;;5042516;28;20047;-63
2023/07/28 08:56:53;;;;;;;3.33;2.67;;;21.00;99.90;;;;;;5040583;28;20052;-64
2023/07/28 08:59:25;;;;;;;2.72;2.55;;;21.20;99.90;;;;;;5027353;28;20035;-63
2023/07/28 09:01:55;;;;;;;3.85;2.83;;;21.40;99.90;;;;;;5059070;28;20509;-63
2023/07/28 09:04:24;;;;;;;2.10;1.90;;;21.60;99.90;;;;;;5059823;28;20335;-63
2023/07/28 09:06:50;;;;;;;2.60;2.47;;;21.80;99.90;;;;;;5054273;28;20028;-64
2023/07/28 09:09:21;;;;;;;3.05;2.00;;;22.00;99.90;;;;;;5039455;28;20371;-63
2023/07/28 09:11:53;;;;;;;3.05;2.22;;;22.00;99.90;;;;;;5055405;28;20048;-63
2023/07/28 09:14:21;;;;;;;2.00;1.90;;;22.20;99.90;;;;;;5040077;28;20769;-63
2023/07/28 09:16:47;;;;;;;2.20;1.73;;;22.80;99.90;;;;;;5059513;28;20063;-63
2023/07/28 09:19:14;;;;;;;2.58;1.58;;;23.30;99.90;;;;;;5054634;28;20464;-63
2023/07/28 09:21:42;;;;;;;2.00;1.70;;;23.30;99.90;;;;;;5057241;28;20048;-66
2023/07/28 09:24:10;;;;;;;3.67;2.10;;;23.40;99.90;;;;;;5072446;27;20051;-63
2023/07/28 09:26:44;;;;;;;3.80;2.50;;;23.10;99.90;;;;;;5054365;28;21243;-63
2023/07/28 09:29:23;;;;;;;3.30;2.70;;;23.30;99.90;;;;;;5054969;28;20124;-65
2023/07/28 09:31:49;;;;;;;2.65;2.45;;;23.30;99.90;;;;;;5053628;28;20857;-64
2023/07/28 09:34:26;;;;;;;3.05;2.85;;;23.10;99.90;;;;;;5053037;28;20064;-64
2023/07/28 09:36:57;;;;;;;3.33;3.03;;;22.80;99.90;;;;;;5061241;28;20135;-66
2023/07/28 09:39:23;;;;;;;3.75;3.33;;;22.60;99.90;;;;;;5039016;28;20068;-63
2023/07/28 09:41:49;;;;;;;2.90;2.70;;;22.50;99.90;;;;;;5054263;28;20078;-64
2023/07/28 09:44:15;;;;;;;3.65;3.10;;;22.40;99.90;;;;;;5053875;28;20036;-63
2023/07/28 09:46:51;;;;;;;3.70;3.50;;;22.20;99.90;;;;;;5057099;28;20067;-63
2023/07/28 09:49:25;;;;;;;3.78;3.45;;;21.90;99.90;;;;;;5063104;28;20047;-64
2023/07/28 09:51:54;;;;;;;3.42;3.00;;;21.80;99.90;;;;;;5053115;28;20049;-63
2023/07/28 09:54:29;;;;;;;2.90;2.67;;;22.00;99.90;;;;;;5040122;28;20262;-64
2023/07/28 09:56:57;;;;;;;4.18;3.13;;;22.00;99.90;;;;;;5051771;28;20113;-64
2023/07/28 09:59:29;;;;;;;3.17;2.97;;;22.40;99.90;;;;;;5055221;28;20232;-64
2023/07/28 10:01:58;;;;;;;4.00;3.70;;;22.20;99.90;;;;;;5054312;28;20221;-62
2023/07/28 10:04:26;;;;;;;3.97;3.60;;;21.80;99.90;;;;;;5061476;28;20386;-63
2023/07/28 10:06:56;;;;;;;4.65;4.22;;;21.60;99.90;;;;;;5072165;28;20049;-66
2023/07/28 10:09:24;;;;;;;4.78;4.35;;;21.40;99.90;;;;;;5070947;28;20460;-64
2023/07/28 10:11:50;;;;;;;4.82;4.30;;;21.60;99.90;;;;;;5071477;28;20493;-63
2023/07/28 10:14:37;;;;;;;4.60;4.20;;;21.90;99.90;;;;;;5066344;28;20036;-63
2023/07/28 10:17:05;;;;;;;4.38;3.97;;;22.30;99.90;;;;;;5075724;28;20032;-61
2023/07/28 10:19:35;;;;;;;5.25;3.30;;;22.20;99.90;;;;;;5056001;28;20072;-62
2023/07/28 10:22:02;;;;;;;4.10;3.80;;;22.10;99.90;;;;;;5085353;28;20048;-62
2023/07/28 10:24:52;;;;;;;5.65;4.55;;;21.90;99.90;;;;;;5063228;28;20040;-62
2023/07/28 10:27:45;;;;;;;6.13;5.47;;;21.60;99.90;;;;;;5054333;28;20041;-62
2023/07/28 10:30:12;;;;;;;;;;;21.50;99.90;;;;;;5074956;28;20064;-62
2023/07/28 10:32:39;;;;;;;6.30;5.68;;;21.60;99.90;;;;;;5049195;28;19924;-63
2023/07/28 10:35:11;;;;;;;6.55;5.93;;;21.40;99.90;;;;;;5053775;28;20047;-62
2023/07/28 10:37:37;;;;;;;6.65;6.05;;;21.50;99.90;;;;;;5051862;28;20204;-63
2023/07/28 10:40:22;;;;;;;6.05;5.55;;;21.70;99.90;;;;;;5054385;28;20057;-63
2023/07/28 10:42:49;;;;;;;6.93;6.32;;;21.90;99.90;;;;;;5040989;28;20168;-63
2023/07/28 10:45:15;;;;;;;6.18;5.57;;;22.40;99.90;;;;;;5058066;28;20474;-64
2023/07/28 10:47:42;;;;;;;6.63;5.47;;;22.90;99.90;;;;;;5021998;28;20044;-62
2023/07/28 10:50:12;;;;;;;5.75;5.35;;;23.10;99.90;;;;;;5050879;28;20588;-62
2023/07/28 10:52:45;;;;;;;5.13;4.63;;;23.30;99.90;;;;;;5071859;28;20093;-63
2023/07/28 10:55:25;;;;;;;4.40;4.00;;;23.20;99.90;;;;;;5070329;28;20170;-63
2023/07/28 10:57:53;;;;;;;5.10;3.95;;;23.70;99.90;;;;;;5070347;28;20143;-61
2023/07/28 11:00:21;;;;;;;4.45;4.05;;;24.10;99.90;;;;;;5053354;28;20039;-60
2023/07/28 11:02:56;;;;;;;4.10;3.80;;;23.90;99.90;;;;;;5071223;28;20040;-62
2023/07/28 11:05:32;;;;;;;4.95;4.55;;;23.60;99.90;;;;;;5071287;28;20113;-62
2023/07/28 11:08:00;;;;;;;3.60;3.30;;;23.70;99.90;;;;;;5086860;28;20048;-61
2023/07/28 11:10:29;;;;;;;4.28;3.90;;;23.90;99.90;;;;;;5087381;28;20040;-61
2023/07/28 11:13:01;;;;;;;4.10;3.80;;;23.90;99.90;;;;;;5052750;28;20048;-62
2023/07/28 11:15:27;;;;;;;3.70;3.27;;;23.90;99.90;;;;;;5053263;28;20121;-63
2023/07/28 11:17:53;;;;;;;2.30;2.20;;;24.30;99.90;;;;;;5069698;28;20660;-62
2023/07/28 11:20:20;;;;;;;2.90;2.53;;;24.60;99.90;;;;;;5070026;28;20774;-63
2023/07/28 11:22:52;;;;;;;3.08;1.92;;;24.50;99.90;;;;;;5053632;28;20035;-62
2023/07/28 11:25:18;;;;;;;2.83;2.63;;;24.80;99.90;;;;;;5069788;28;20382;-63
2023/07/28 11:27:48;;;;;;;2.40;2.17;;;24.70;99.90;;;;;;5071461;28;21225;-64
2023/07/28 11:30:16;;;;;;;2.65;1.10;;;24.40;99.90;;;;;;5070672;28;20044;-63
2023/07/28 11:32:46;;;;;;;3.60;1.60;;;24.50;99.90;;;;;;5071388;28;20549;-61
2023/07/28 11:35:13;;;;;;;3.45;1.48;;;24.30;99.90;;;;;;5070116;28;20069;-63
2023/07/28 11:37:41;;;;;;;1.90;1.13;;;24.20;99.90;;;;;;5069402;28;20036;-62
2023/07/28 11:40:10;;;;;;;1.70;1.10;;;24.60;99.90;;;;;;5052676;28;20121;-62
2023/07/28 11:42:55;;;;;;;3.47;0.85;;;25.00;99.90;;;;;;5070817;28;20048;-62
2023/07/28 11:45:22;;;;;;;2.88;1.10;;;24.90;99.90;;;;;;5071226;28;20048;-63
2023/07/28 11:47:58;;;;;;;1.60;0.95;;;24.60;99.90;;;;;;5057306;28;20131;-63
2023/07/28 11:50:26;;;;;;;2.75;1.85;;;24.50;99.90;;;;;;5053155;28;20141;-62
2023/07/28 11:52:51;;;;;;;1.73;1.50;;;23.90;99.90;;;;;;5051579;28;20427;-63
2023/07/28 11:55:19;;;;;;;2.60;1.58;;;23.40;99.90;;;;;;5033435;28;20037;-63
2023/07/28 11:57:44;;;;;;;2.05;1.85;;;23.40;99.90;;;;;;5069147;28;20124;-63
2023/07/28 12:00:12;;;;;;;1.90;1.60;;;23.20;99.90;;;;;;5057621;28;20053;-63
2023/07/28 12:02:38;;;;;;;3.97;1.55;;;23.70;99.90;;;;;;5049651;28;20043;-63
2023/07/28 12:05:12;;;;;;;2.95;1.75;;;24.30;99.90;;;;;;5051751;28;20410;-63
2023/07/28 12:07:38;;;;;;;2.67;1.50;;;24.30;99.90;;;;;;5052640;28;20093;-63
2023/07/28 12:10:15;;;;;;;2.85;1.75;;;24.20;99.90;;;;;;5038889;28;20698;-63
2023/07/28 12:12:47;;;;;;;4.03;1.45;;;24.20;99.90;;;;;;5054863;28;20213;-62
2023/07/28 12:15:19;;;;;;;;;;;24.50;99.90;;;;;;5055001;28;20513;-64
2023/07/28 12:18:03;;;;;;;1.55;0.98;;;25.00;99.90;;;;;;5034925;28;19924;-64
2023/07/28 12:20:34;;;;;;;2.88;0.98;;;25.60;99.90;;;;;;5064949;28;20418;-63
2023/07/28 12:22:59;;;;;;;1.60;0.80;;;25.70;99.90;;;;;;5066755;28;20048;-63
2023/07/28 12:25:25;;;;;;;2.40;0.90;;;25.70;99.90;;;;;;5051283;28;20169;-63
2023/07/28 12:27:52;;;;;;;1.52;0.82;;;25.60;99.90;;;;;;5049445;28;20109;-62
2023/07/28 12:30:17;;;;;;;3.25;0.95;;;25.90;99.90;;;;;;5033289;28;20106;-62
2023/07/28 12:32:44;;;;;;;1.10;0.68;;;25.50;99.90;;;;;;5033001;28;20048;-64
2023/07/28 12:35:09;;;;;;;1.13;0.80;;;24.90;99.90;;;;;;5038033;28;20040;-64
2023/07/28 12:37:35;;;;;;;2.05;0.68;;;24.80;99.90;;;;;;5049813;28;20082;-63